sensor_id;sensor_type;location;lat;lon;timestamp;temperature;humidity
37289;DHT22;23174;49.462;11.000;2023-08-08T00:00:04;15.50;99.90
37289;DHT22;23174;49.462;11.000;2023-08-08T00:02:05;15.50;99.90
37289;DHT22;23174;49.462;11.000;2023-08-08T00:04:06;15.50;99.90
37289;DHT22;23174;49.462;11.000;2023-08-08T00:06:06;15.50;99.90
37289;DHT22;23174;49.462;11.000;2023-08-08T00:08:07;15.50;99.90
37289;DHT22;23174;49.462;11.000;2023-08-08T00:10:08;15.60;99.90
37289;DHT22;23174;49.462;11.000;2023-08-08T00:12:08;15.60;99.90
37289;DHT22;23174;49.462;11.000;2023-08-08T00:14:09;15.50;99.90
37289;DHT22;23174;49.462;11.000;2023-08-08T00:16:09;15.50;99.90
37289;DHT22;23174;49.462;11.000;2023-08-08T00:18:10;15.50;99.90
37289;DHT22;23174;49.462;11.000;2023-08-08T00:20:10;15.50;99.90
37289;DHT22;23174;49.462;11.000;2023-08-08T00:22:11;15.40;99.90
37289;DHT22;23174;49.462;11.000;2023-08-08T00:24:11;15.60;99.90
37289;DHT22;23174;49.462;11.000;2023-08-08T00:26:12;15.50;99.90
37289;DHT22;23174;49.462;11.000;2023-08-08T00:28:13;15.50;99.90
37289;DHT22;23174;49.462;11.000;2023-08-08T00:30:13;15.40;99.90
37289;DHT22;23174;49.462;11.000;2023-08-08T00:32:14;15.50;99.90
37289;DHT22;23174;49.462;11.000;2023-08-08T00:34:14;15.80;99.90
37289;DHT22;23174;49.462;11.000;2023-08-08T00:36:15;15.70;99.90
37289;DHT22;23174;49.462;11.000;2023-08-08T00:38:15;15.50;99.90
37289;DHT22;23174;49.462;11.000;2023-08-08T00:40:17;15.60;99.90
37289;DHT22;23174;49.462;11.000;2023-08-08T00:42:17;15.60;99.90
37289;DHT22;23174;49.462;11.000;2023-08-08T00:44:18;15.60;99.90
37289;DHT22;23174;49.462;11.000;2023-08-08T00:46:21;15.60;99.90
37289;DHT22;23174;49.462;11.000;2023-08-08T00:48:22;15.60;99.90
37289;DHT22;23174;49.462;11.000;2023-08-08T00:50:23;15.60;99.90
37289;DHT22;23174;49.462;11.000;2023-08-08T00:52:23;15.60;99.90
37289;DHT22;23174;49.462;11.000;2023-08-08T00:54:26;15.70;99.90
37289;DHT22;23174;49.462;11.000;2023-08-08T00:56:26;15.60;99.90
37289;DHT22;23174;49.462;11.000;2023-08-08T00:58:27;15.70;99.90
37289;DHT22;23174;49.462;11.000;2023-08-08T01:00:28;15.60;99.90
37289;DHT22;23174;49.462;11.000;2023-08-08T01:02:28;15.60;99.90
37289;DHT22;23174;49.462;11.000;2023-08-08T01:04:29;15.60;99.90
37289;DHT22;23174;49.462;11.000;2023-08-08T01:06:54;15.60;99.90
37289;DHT22;23174;49.462;11.000;2023-08-08T01:09:13;15.60;99.90
37289;DHT22;23174;49.462;11.000;2023-08-08T01:11:16;15.60;99.90
37289;DHT22;23174;49.462;11.000;2023-08-08T01:13:20;15.60;99.90
37289;DHT22;23174;49.462;11.000;2023-08-08T01:15:22;15.60;99.90
37289;DHT22;23174;49.462;11.000;2023-08-08T01:17:25;15.60;99.90
37289;DHT22;23174;49.462;11.000;2023-08-08T01:19:27;15.80;99.90
37289;DHT22;23174;49.462;11.000;2023-08-08T01:21:29;15.90;99.90
37289;DHT22;23174;49.462;11.000;2023-08-08T01:23:42;15.80;99.90
37289;DHT22;23174;49.462;11.000;2023-08-08T01:25:44;15.80;99.90
37289;DHT22;23174;49.462;11.000;2023-08-08T01:27:45;15.70;99.90
37289;DHT22;23174;49.462;11.000;2023-08-08T01:29:45;15.70;99.90
37289;DHT22;23174;49.462;11.000;2023-08-08T01:31:46;15.70;99.90
37289;DHT22;23174;49.462;11.000;2023-08-08T01:33:47;15.70;99.90
37289;DHT22;23174;49.462;11.000;2023-08-08T01:35:54;15.60;99.90
37289;DHT22;23174;49.462;11.000;2023-08-08T01:38:04;15.70;99.90
37289;DHT22;23174;49.462;11.000;2023-08-08T01:40:09;15.70;99.90
37289;DHT22;23174;49.462;11.000;2023-08-08T01:42:12;15.70;99.90
37289;DHT22;23174;49.462;11.000;2023-08-08T01:44:14;15.70;99.90
37289;DHT22;23174;49.462;11.000;2023-08-08T01:46:15;15.70;99.90
37289;DHT22;23174;49.462;11.000;2023-08-08T01:48:16;15.70;99.90
37289;DHT22;23174;49.462;11.000;2023-08-08T01:50:16;15.70;99.90
37289;DHT22;23174;49.462;11.000;2023-08-08T01:52:17;15.70;99.90
37289;DHT22;23174;49.462;11.000;2023-08-08T01:54:19;15.70;99.90
37289;DHT22;23174;49.462;11.000;2023-08-08T01:56:19;15.60;99.90
37289;DHT22;23174;49.462;11.000;2023-08-08T01:58:20;15.60;99.90
37289;DHT22;23174;49.462;11.000;2023-08-08T02:00:20;15.60;99.90
37289;DHT22;23174;49.462;11.000;2023-08-08T02:02:21;15.70;99.90
37289;DHT22;23174;49.462;11.000;2023-08-08T02:04:21;15.80;99.90
37289;DHT22;23174;49.462;11.000;2023-08-08T02:06:22;15.80;99.90
37289;DHT22;23174;49.462;11.000;2023-08-08T02:08:23;15.80;99.90
37289;DHT22;23174;49.462;11.000;2023-08-08T02:10:23;15.80;99.90
37289;DHT22;23174;49.462;11.000;2023-08-08T02:12:24;15.70;99.90
37289;DHT22;23174;49.462;11.000;2023-08-08T02:14:24;15.80;99.90
37289;DHT22;23174;49.462;11.000;2023-08-08T02:16:25;15.80;99.90
37289;DHT22;23174;49.462;11.000;2023-08-08T02:18:25;15.80;99.90
37289;DHT22;23174;49.462;11.000;2023-08-08T02:20:26;15.80;99.90
37289;DHT22;23174;49.462;11.000;2023-08-08T02:22:26;15.70;99.90
37289;DHT22;23174;49.462;11.000;2023-08-08T02:24:27;15.70;99.90
37289;DHT22;23174;49.462;11.000;2023-08-08T02:26:27;15.80;99.90
37289;DHT22;23174;49.462;11.000;2023-08-08T02:28:28;15.80;99.90
37289;DHT22;23174;49.462;11.000;2023-08-08T02:30:28;15.90;99.90
37289;DHT22;23174;49.462;11.000;2023-08-08T02:32:29;15.90;99.90
37289;DHT22;23174;49.462;11.000;2023-08-08T02:34:29;15.90;99.90
37289;DHT22;23174;49.462;11.000;2023-08-08T02:36:30;15.70;99.90
37289;DHT22;23174;49.462;11.000;2023-08-08T02:38:30;15.80;99.90
37289;DHT22;23174;49.462;11.000;2023-08-08T02:40:30;16.00;99.90
37289;DHT22;23174;49.462;11.000;2023-08-08T02:42:31;16.00;99.90
37289;DHT22;23174;49.462;11.000;2023-08-08T02:44:31;15.90;99.90
37289;DHT22;23174;49.462;11.000;2023-08-08T02:46:32;15.80;99.90
37289;DHT22;23174;49.462;11.000;2023-08-08T02:48:32;16.00;99.90
37289;DHT22;23174;49.462;11.000;2023-08-08T02:50:33;15.80;99.90
37289;DHT22;23174;49.462;11.000;2023-08-08T02:52:33;15.90;99.90
37289;DHT22;23174;49.462;11.000;2023-08-08T02:54:34;16.20;99.90
37289;DHT22;23174;49.462;11.000;2023-08-08T02:56:34;16.00;99.90
37289;DHT22;23174;49.462;11.000;2023-08-08T02:58:35;16.10;99.90
37289;DHT22;23174;49.462;11.000;2023-08-08T03:00:35;16.10;99.90
37289;DHT22;23174;49.462;11.000;2023-08-08T03:02:36;16.10;99.90
37289;DHT22;23174;49.462;11.000;2023-08-08T03:04:36;16.00;99.90
37289;DHT22;23174;49.462;11.000;2023-08-08T03:06:37;16.00;99.90
37289;DHT22;23174;49.462;11.000;2023-08-08T03:08:37;16.00;99.90
37289;DHT22;23174;49.462;11.000;2023-08-08T03:10:38;15.90;99.90
37289;DHT22;23174;49.462;11.000;2023-08-08T03:12:38;16.00;99.90
37289;DHT22;23174;49.462;11.000;2023-08-08T03:14:39;15.90;99.90
37289;DHT22;23174;49.462;11.000;2023-08-08T03:16:40;15.80;99.90
37289;DHT22;23174;49.462;11.000;2023-08-08T03:18:40;15.80;99.90
37289;DHT22;23174;49.462;11.000;2023-08-08T03:20:41;15.80;99.90
37289;DHT22;23174;49.462;11.000;2023-08-08T03:22:42;15.70;99.90
37289;DHT22;23174;49.462;11.000;2023-08-08T03:24:42;15.70;99.90
37289;DHT22;23174;49.462;11.000;2023-08-08T03:26:42;15.80;99.90
37289;DHT22;23174;49.462;11.000;2023-08-08T03:28:43;15.80;99.90
37289;DHT22;23174;49.462;11.000;2023-08-08T03:30:44;15.70;99.90
37289;DHT22;23174;49.462;11.000;2023-08-08T03:32:44;15.60;99.90
37289;DHT22;23174;49.462;11.000;2023-08-08T03:34:45;15.60;99.90
37289;DHT22;23174;49.462;11.000;2023-08-08T03:36:45;15.60;99.90
37289;DHT22;23174;49.462;11.000;2023-08-08T03:38:46;15.70;99.90
37289;DHT22;23174;49.462;11.000;2023-08-08T03:40:46;15.70;99.90
37289;DHT22;23174;49.462;11.000;2023-08-08T03:42:47;15.60;99.90
37289;DHT22;23174;49.462;11.000;2023-08-08T03:44:47;15.60;99.90
37289;DHT22;23174;49.462;11.000;2023-08-08T03:46:48;15.50;99.90
37289;DHT22;23174;49.462;11.000;2023-08-08T03:48:48;15.60;99.90
37289;DHT22;23174;49.462;11.000;2023-08-08T03:50:49;15.60;99.90
37289;DHT22;23174;49.462;11.000;2023-08-08T03:52:49;15.50;99.90
37289;DHT22;23174;49.462;11.000;2023-08-08T03:54:50;15.50;99.90
37289;DHT22;23174;49.462;11.000;2023-08-08T03:56:50;15.50;99.90
37289;DHT22;23174;49.462;11.000;2023-08-08T03:58:51;15.40;99.90
37289;DHT22;23174;49.462;11.000;2023-08-08T04:00:51;15.40;99.90
37289;DHT22;23174;49.462;11.000;2023-08-08T04:02:52;15.50;99.90
37289;DHT22;23174;49.462;11.000;2023-08-08T04:04:52;15.50;99.90
37289;DHT22;23174;49.462;11.000;2023-08-08T04:06:53;15.50;99.90
37289;DHT22;23174;49.462;11.000;2023-08-08T04:08:53;15.40;99.90
37289;DHT22;23174;49.462;11.000;2023-08-08T04:10:54;15.30;99.90
37289;DHT22;23174;49.462;11.000;2023-08-08T04:12:54;15.40;99.90
37289;DHT22;23174;49.462;11.000;2023-08-08T04:14:55;15.30;99.90
37289;DHT22;23174;49.462;11.000;2023-08-08T04:16:55;15.20;99.90
37289;DHT22;23174;49.462;11.000;2023-08-08T04:18:56;15.30;99.90
37289;DHT22;23174;49.462;11.000;2023-08-08T04:20:56;15.30;99.90
37289;DHT22;23174;49.462;11.000;2023-08-08T04:22:57;15.20;99.90
37289;DHT22;23174;49.462;11.000;2023-08-08T04:24:57;15.20;99.90
37289;DHT22;23174;49.462;11.000;2023-08-08T04:26:58;15.20;99.90
37289;DHT22;23174;49.462;11.000;2023-08-08T04:28:58;15.20;99.90
37289;DHT22;23174;49.462;11.000;2023-08-08T04:30:59;15.20;99.90
37289;DHT22;23174;49.462;11.000;2023-08-08T04:32:59;15.20;99.90
37289;DHT22;23174;49.462;11.000;2023-08-08T04:35:00;15.10;99.90
37289;DHT22;23174;49.462;11.000;2023-08-08T04:37:00;15.20;99.90
37289;DHT22;23174;49.462;11.000;2023-08-08T04:39:01;15.20;99.90
37289;DHT22;23174;49.462;11.000;2023-08-08T04:41:01;15.30;99.90
37289;DHT22;23174;49.462;11.000;2023-08-08T04:43:02;15.30;99.90
37289;DHT22;23174;49.462;11.000;2023-08-08T04:45:02;15.40;99.90
37289;DHT22;23174;49.462;11.000;2023-08-08T04:47:03;15.40;99.90
37289;DHT22;23174;49.462;11.000;2023-08-08T04:49:03;15.40;99.90
37289;DHT22;23174;49.462;11.000;2023-08-08T04:51:08;15.40;99.90
37289;DHT22;23174;49.462;11.000;2023-08-08T04:53:09;15.20;99.90
37289;DHT22;23174;49.462;11.000;2023-08-08T04:55:09;15.20;99.90
37289;DHT22;23174;49.462;11.000;2023-08-08T04:57:10;15.10;99.90
37289;DHT22;23174;49.462;11.000;2023-08-08T04:59:10;15.20;99.90
37289;DHT22;23174;49.462;11.000;2023-08-08T05:01:11;15.30;99.90
37289;DHT22;23174;49.462;11.000;2023-08-08T05:03:14;15.30;99.90
37289;DHT22;23174;49.462;11.000;2023-08-08T05:05:15;15.20;99.90
37289;DHT22;23174;49.462;11.000;2023-08-08T05:07:15;15.20;99.90
37289;DHT22;23174;49.462;11.000;2023-08-08T05:09:16;15.20;99.90
37289;DHT22;23174;49.462;11.000;2023-08-08T05:11:16;15.20;99.90
37289;DHT22;23174;49.462;11.000;2023-08-08T05:13:17;15.30;99.90
37289;DHT22;23174;49.462;11.000;2023-08-08T05:15:17;15.30;99.90
37289;DHT22;23174;49.462;11.000;2023-08-08T05:17:18;15.30;99.90
37289;DHT22;23174;49.462;11.000;2023-08-08T05:19:18;15.30;99.90
37289;DHT22;23174;49.462;11.000;2023-08-08T05:21:19;15.30;99.90
37289;DHT22;23174;49.462;11.000;2023-08-08T05:23:20;15.30;99.90
37289;DHT22;23174;49.462;11.000;2023-08-08T05:25:20;15.50;99.90
37289;DHT22;23174;49.462;11.000;2023-08-08T05:27:21;15.60;99.90
37289;DHT22;23174;49.462;11.000;2023-08-08T05:29:21;15.60;99.90
37289;DHT22;23174;49.462;11.000;2023-08-08T05:31:22;15.50;99.90
37289;DHT22;23174;49.462;11.000;2023-08-08T05:33:22;15.60;99.90
37289;DHT22;23174;49.462;11.000;2023-08-08T05:35:23;15.60;99.90
37289;DHT22;23174;49.462;11.000;2023-08-08T05:37:24;15.60;99.90
37289;DHT22;23174;49.462;11.000;2023-08-08T05:39:24;15.70;99.90
37289;DHT22;23174;49.462;11.000;2023-08-08T05:41:25;15.70;99.90
37289;DHT22;23174;49.462;11.000;2023-08-08T05:43:25;15.70;99.90
37289;DHT22;23174;49.462;11.000;2023-08-08T05:45:27;15.80;99.90
37289;DHT22;23174;49.462;11.000;2023-08-08T05:47:28;15.80;99.90
37289;DHT22;23174;49.462;11.000;2023-08-08T05:49:28;15.80;99.90
37289;DHT22;23174;49.462;11.000;2023-08-08T05:51:29;15.90;99.90
37289;DHT22;23174;49.462;11.000;2023-08-08T05:53:29;15.90;99.90
37289;DHT22;23174;49.462;11.000;2023-08-08T05:55:30;16.00;99.90
37289;DHT22;23174;49.462;11.000;2023-08-08T05:57:30;16.00;99.90
37289;DHT22;23174;49.462;11.000;2023-08-08T05:59:31;16.10;99.90
37289;DHT22;23174;49.462;11.000;2023-08-08T06:01:31;16.10;99.90
37289;DHT22;23174;49.462;11.000;2023-08-08T06:03:35;16.10;99.90
37289;DHT22;23174;49.462;11.000;2023-08-08T06:05:37;16.20;99.90
37289;DHT22;23174;49.462;11.000;2023-08-08T06:07:38;16.30;99.90
37289;DHT22;23174;49.462;11.000;2023-08-08T06:09:39;16.30;99.90
37289;DHT22;23174;49.462;11.000;2023-08-08T06:11:40;16.40;99.90
37289;DHT22;23174;49.462;11.000;2023-08-08T06:13:40;16.40;99.90
37289;DHT22;23174;49.462;11.000;2023-08-08T06:15:41;16.50;99.90
37289;DHT22;23174;49.462;11.000;2023-08-08T06:17:41;16.50;99.90
37289;DHT22;23174;49.462;11.000;2023-08-08T06:19:42;15.90;99.90
37289;DHT22;23174;49.462;11.000;2023-08-08T06:21:42;15.70;99.90
37289;DHT22;23174;49.462;11.000;2023-08-08T06:23:43;15.60;99.90
37289;DHT22;23174;49.462;11.000;2023-08-08T06:25:43;15.60;99.90
37289;DHT22;23174;49.462;11.000;2023-08-08T06:27:44;15.50;99.90
37289;DHT22;23174;49.462;11.000;2023-08-08T06:29:44;15.50;99.90
37289;DHT22;23174;49.462;11.000;2023-08-08T06:31:45;15.60;99.90
37289;DHT22;23174;49.462;11.000;2023-08-08T06:33:45;15.70;99.90
37289;DHT22;23174;49.462;11.000;2023-08-08T06:35:46;15.70;99.90
37289;DHT22;23174;49.462;11.000;2023-08-08T06:37:46;15.70;99.90
37289;DHT22;23174;49.462;11.000;2023-08-08T06:39:46;15.70;99.90
37289;DHT22;23174;49.462;11.000;2023-08-08T06:41:47;15.80;99.90
37289;DHT22;23174;49.462;11.000;2023-08-08T06:43:48;15.80;99.90
37289;DHT22;23174;49.462;11.000;2023-08-08T06:45:49;16.00;99.90
37289;DHT22;23174;49.462;11.000;2023-08-08T06:47:49;16.10;99.90
37289;DHT22;23174;49.462;11.000;2023-08-08T06:49:50;16.10;99.90
37289;DHT22;23174;49.462;11.000;2023-08-08T06:51:50;16.20;99.90
37289;DHT22;23174;49.462;11.000;2023-08-08T06:53:51;16.30;99.90
37289;DHT22;23174;49.462;11.000;2023-08-08T06:55:52;16.20;99.90
37289;DHT22;23174;49.462;11.000;2023-08-08T06:57:52;16.30;99.90
37289;DHT22;23174;49.462;11.000;2023-08-08T06:59:53;16.30;99.90
37289;DHT22;23174;49.462;11.000;2023-08-08T07:01:54;16.40;99.90
37289;DHT22;23174;49.462;11.000;2023-08-08T07:03:56;16.70;99.90
37289;DHT22;23174;49.462;11.000;2023-08-08T07:05:57;17.00;99.90
37289;DHT22;23174;49.462;11.000;2023-08-08T07:07:58;17.10;99.90
37289;DHT22;23174;49.462;11.000;2023-08-08T07:09:59;17.20;99.90
37289;DHT22;23174;49.462;11.000;2023-08-08T07:11:59;17.30;99.90
37289;DHT22;23174;49.462;11.000;2023-08-08T07:14:00;17.30;99.90
37289;DHT22;23174;49.462;11.000;2023-08-08T07:16:01;17.40;99.90
37289;DHT22;23174;49.462;11.000;2023-08-08T07:18:01;17.50;99.90
37289;DHT22;23174;49.462;11.000;2023-08-08T07:20:02;17.50;99.90
37289;DHT22;23174;49.462;11.000;2023-08-08T07:22:03;17.60;99.90
37289;DHT22;23174;49.462;11.000;2023-08-08T07:24:03;17.60;99.90
37289;DHT22;23174;49.462;11.000;2023-08-08T07:26:04;17.60;99.90
37289;DHT22;23174;49.462;11.000;2023-08-08T07:28:04;17.60;99.90
37289;DHT22;23174;49.462;11.000;2023-08-08T07:30:05;17.80;99.90
37289;DHT22;23174;49.462;11.000;2023-08-08T07:32:07;17.80;99.90
37289;DHT22;23174;49.462;11.000;2023-08-08T07:34:08;17.80;99.90
37289;DHT22;23174;49.462;11.000;2023-08-08T07:36:08;17.80;99.90
37289;DHT22;23174;49.462;11.000;2023-08-08T07:38:09;17.90;99.90
37289;DHT22;23174;49.462;11.000;2023-08-08T07:40:17;17.90;99.90
37289;DHT22;23174;49.462;11.000;2023-08-08T07:42:18;18.00;99.90
37289;DHT22;23174;49.462;11.000;2023-08-08T07:44:18;18.00;99.90
37289;DHT22;23174;49.462;11.000;2023-08-08T07:46:19;18.00;99.90
37289;DHT22;23174;49.462;11.000;2023-08-08T07:48:19;18.20;99.90
37289;DHT22;23174;49.462;11.000;2023-08-08T07:50:20;18.30;99.90
37289;DHT22;23174;49.462;11.000;2023-08-08T07:52:20;18.40;99.90
37289;DHT22;23174;49.462;11.000;2023-08-08T07:54:21;18.40;99.90
37289;DHT22;23174;49.462;11.000;2023-08-08T07:56:21;18.50;99.90
37289;DHT22;23174;49.462;11.000;2023-08-08T07:58:22;18.40;99.90
37289;DHT22;23174;49.462;11.000;2023-08-08T08:00:26;18.50;99.90
37289;DHT22;23174;49.462;11.000;2023-08-08T08:02:26;18.50;99.90
37289;DHT22;23174;49.462;11.000;2023-08-08T08:04:27;18.40;99.90
37289;DHT22;23174;49.462;11.000;2023-08-08T08:06:27;18.40;99.90
37289;DHT22;23174;49.462;11.000;2023-08-08T08:08:28;18.50;99.90
37289;DHT22;23174;49.462;11.000;2023-08-08T08:10:28;18.60;99.90
37289;DHT22;23174;49.462;11.000;2023-08-08T08:12:30;18.60;99.90
37289;DHT22;23174;49.462;11.000;2023-08-08T08:14:31;18.70;99.90
37289;DHT22;23174;49.462;11.000;2023-08-08T08:16:31;18.80;99.90
37289;DHT22;23174;49.462;11.000;2023-08-08T08:18:32;18.90;99.90
37289;DHT22;23174;49.462;11.000;2023-08-08T08:20:33;18.70;99.90
37289;DHT22;23174;49.462;11.000;2023-08-08T08:22:34;18.80;99.90
37289;DHT22;23174;49.462;11.000;2023-08-08T08:24:34;18.70;99.90
37289;DHT22;23174;49.462;11.000;2023-08-08T08:26:35;18.70;99.90
37289;DHT22;23174;49.462;11.000;2023-08-08T08:28:36;18.80;99.90
37289;DHT22;23174;49.462;11.000;2023-08-08T08:30:36;18.80;99.90
37289;DHT22;23174;49.462;11.000;2023-08-08T08:32:39;18.90;99.90
37289;DHT22;23174;49.462;11.000;2023-08-08T08:34:39;19.00;99.90
37289;DHT22;23174;49.462;11.000;2023-08-08T08:36:40;18.90;99.90
37289;DHT22;23174;49.462;11.000;2023-08-08T08:38:40;19.00;99.90
37289;DHT22;23174;49.462;11.000;2023-08-08T08:40:41;19.00;99.90
37289;DHT22;23174;49.462;11.000;2023-08-08T08:42:42;19.00;99.90
37289;DHT22;23174;49.462;11.000;2023-08-08T08:44:43;19.10;99.90
37289;DHT22;23174;49.462;11.000;2023-08-08T08:46:46;19.00;99.90
37289;DHT22;23174;49.462;11.000;2023-08-08T08:48:51;19.00;99.90
37289;DHT22;23174;49.462;11.000;2023-08-08T08:50:55;19.00;99.90
37289;DHT22;23174;49.462;11.000;2023-08-08T08:52:56;19.00;99.90
37289;DHT22;23174;49.462;11.000;2023-08-08T08:54:58;19.10;99.90
37289;DHT22;23174;49.462;11.000;2023-08-08T08:56:58;19.20;99.90
37289;DHT22;23174;49.462;11.000;2023-08-08T08:58:59;19.30;99.90
37289;DHT22;23174;49.462;11.000;2023-08-08T09:01:00;19.30;99.90
37289;DHT22;23174;49.462;11.000;2023-08-08T09:03:01;19.30;99.90
37289;DHT22;23174;49.462;11.000;2023-08-08T09:05:03;19.30;99.90
37289;DHT22;23174;49.462;11.000;2023-08-08T09:07:06;19.20;99.90
37289;DHT22;23174;49.462;11.000;2023-08-08T09:09:07;19.20;99.90
37289;DHT22;23174;49.462;11.000;2023-08-08T09:11:08;19.10;99.90
37289;DHT22;23174;49.462;11.000;2023-08-08T09:13:09;19.10;99.90
37289;DHT22;23174;49.462;11.000;2023-08-08T09:15:10;19.00;99.90
37289;DHT22;23174;49.462;11.000;2023-08-08T09:17:14;19.10;99.90
37289;DHT22;23174;49.462;11.000;2023-08-08T09:19:15;19.10;99.90
37289;DHT22;23174;49.462;11.000;2023-08-08T09:21:18;19.00;99.90
37289;DHT22;23174;49.462;11.000;2023-08-08T09:23:18;19.00;99.90
37289;DHT22;23174;49.462;11.000;2023-08-08T09:25:19;18.90;99.90
37289;DHT22;23174;49.462;11.000;2023-08-08T09:27:20;18.90;99.90
37289;DHT22;23174;49.462;11.000;2023-08-08T09:29:21;19.00;99.90
37289;DHT22;23174;49.462;11.000;2023-08-08T09:31:24;19.10;99.90
37289;DHT22;23174;49.462;11.000;2023-08-08T09:33:28;19.20;99.90
37289;DHT22;23174;49.462;11.000;2023-08-08T09:35:30;19.30;99.90
37289;DHT22;23174;49.462;11.000;2023-08-08T09:37:30;19.30;99.90
37289;DHT22;23174;49.462;11.000;2023-08-08T09:39:31;19.30;99.90
37289;DHT22;23174;49.462;11.000;2023-08-08T09:41:32;19.30;99.90
37289;DHT22;23174;49.462;11.000;2023-08-08T09:43:32;19.20;99.90
37289;DHT22;23174;49.462;11.000;2023-08-08T09:45:37;19.20;99.90
37289;DHT22;23174;49.462;11.000;2023-08-08T09:47:38;19.30;99.90
37289;DHT22;23174;49.462;11.000;2023-08-08T09:49:39;19.30;99.90
37289;DHT22;23174;49.462;11.000;2023-08-08T09:51:40;19.40;99.90
37289;DHT22;23174;49.462;11.000;2023-08-08T09:53:41;19.30;99.90
37289;DHT22;23174;49.462;11.000;2023-08-08T09:55:42;19.20;99.90
37289;DHT22;23174;49.462;11.000;2023-08-08T09:57:43;19.20;99.90
37289;DHT22;23174;49.462;11.000;2023-08-08T09:59:45;19.30;99.90
37289;DHT22;23174;49.462;11.000;2023-08-08T10:01:48;19.30;99.90
37289;DHT22;23174;49.462;11.000;2023-08-08T10:03:51;19.20;99.90
37289;DHT22;23174;49.462;11.000;2023-08-08T10:05:53;19.30;99.90
37289;DHT22;23174;49.462;11.000;2023-08-08T10:07:54;19.40;99.90
37289;DHT22;23174;49.462;11.000;2023-08-08T10:09:55;19.50;99.90
37289;DHT22;23174;49.462;11.000;2023-08-08T10:11:56;19.70;99.90
37289;DHT22;23174;49.462;11.000;2023-08-08T10:13:57;19.70;99.90
37289;DHT22;23174;49.462;11.000;2023-08-08T10:16:04;19.70;99.90
37289;DHT22;23174;49.462;11.000;2023-08-08T10:18:08;19.70;99.90
37289;DHT22;23174;49.462;11.000;2023-08-08T10:20:10;19.70;99.90
37289;DHT22;23174;49.462;11.000;2023-08-08T10:22:13;19.70;99.90
37289;DHT22;23174;49.462;11.000;2023-08-08T10:24:13;19.70;99.90
37289;DHT22;23174;49.462;11.000;2023-08-08T10:26:20;19.70;99.90
37289;DHT22;23174;49.462;11.000;2023-08-08T10:28:21;19.70;99.90
37289;DHT22;23174;49.462;11.000;2023-08-08T10:30:21;19.70;99.90
37289;DHT22;23174;49.462;11.000;2023-08-08T10:32:24;19.70;99.90
37289;DHT22;23174;49.462;11.000;2023-08-08T10:34:44;19.70;99.90
37289;DHT22;23174;49.462;11.000;2023-08-08T10:36:49;19.80;99.90
37289;DHT22;23174;49.462;11.000;2023-08-08T10:38:50;19.80;99.90
37289;DHT22;23174;49.462;11.000;2023-08-08T10:40:59;19.90;99.90
37289;DHT22;23174;49.462;11.000;2023-08-08T10:43:11;19.80;99.90
37289;DHT22;23174;49.462;11.000;2023-08-08T10:45:13;19.80;99.90
37289;DHT22;23174;49.462;11.000;2023-08-08T10:47:13;19.80;99.90
37289;DHT22;23174;49.462;11.000;2023-08-08T10:49:14;19.80;99.90
37289;DHT22;23174;49.462;11.000;2023-08-08T10:51:16;19.80;99.90
37289;DHT22;23174;49.462;11.000;2023-08-08T10:53:17;19.90;99.90
37289;DHT22;23174;49.462;11.000;2023-08-08T10:55:27;19.90;99.90
37289;DHT22;23174;49.462;11.000;2023-08-08T10:57:31;19.90;99.90
37289;DHT22;23174;49.462;11.000;2023-08-08T10:59:38;19.90;99.90
37289;DHT22;23174;49.462;11.000;2023-08-08T11:01:38;20.00;99.90
37289;DHT22;23174;49.462;11.000;2023-08-08T11:03:41;19.90;99.90
37289;DHT22;23174;49.462;11.000;2023-08-08T11:05:41;20.00;99.90
37289;DHT22;23174;49.462;11.000;2023-08-08T11:07:45;20.10;99.90
37289;DHT22;23174;49.462;11.000;2023-08-08T11:09:45;20.10;99.90
37289;DHT22;23174;49.462;11.000;2023-08-08T11:11:46;20.20;99.90
37289;DHT22;23174;49.462;11.000;2023-08-08T11:13:46;20.20;99.90
37289;DHT22;23174;49.462;11.000;2023-08-08T11:15:51;20.20;99.90
37289;DHT22;23174;49.462;11.000;2023-08-08T11:17:52;20.20;99.90
37289;DHT22;23174;49.462;11.000;2023-08-08T11:19:53;20.20;99.90
37289;DHT22;23174;49.462;11.000;2023-08-08T11:21:53;20.20;99.90
37289;DHT22;23174;49.462;11.000;2023-08-08T11:23:54;20.20;99.90
37289;DHT22;23174;49.462;11.000;2023-08-08T11:25:54;20.30;99.90
37289;DHT22;23174;49.462;11.000;2023-08-08T11:27:56;20.30;99.90
37289;DHT22;23174;49.462;11.000;2023-08-08T11:29:57;20.30;99.90
37289;DHT22;23174;49.462;11.000;2023-08-08T11:32:01;20.30;99.90
37289;DHT22;23174;49.462;11.000;2023-08-08T11:34:06;20.40;99.90
37289;DHT22;23174;49.462;11.000;2023-08-08T11:36:07;20.50;99.90
37289;DHT22;23174;49.462;11.000;2023-08-08T11:38:08;20.50;99.90
37289;DHT22;23174;49.462;11.000;2023-08-08T11:40:09;20.50;99.90
37289;DHT22;23174;49.462;11.000;2023-08-08T11:42:10;20.50;99.90
37289;DHT22;23174;49.462;11.000;2023-08-08T11:44:11;20.40;99.90
37289;DHT22;23174;49.462;11.000;2023-08-08T11:46:13;20.40;99.90
37289;DHT22;23174;49.462;11.000;2023-08-08T11:48:13;20.40;99.90
37289;DHT22;23174;49.462;11.000;2023-08-08T11:50:14;20.30;99.90
37289;DHT22;23174;49.462;11.000;2023-08-08T11:52:14;20.30;99.90
37289;DHT22;23174;49.462;11.000;2023-08-08T11:54:15;20.40;99.90
37289;DHT22;23174;49.462;11.000;2023-08-08T11:56:16;20.50;99.90
37289;DHT22;23174;49.462;11.000;2023-08-08T11:58:17;20.50;99.90
37289;DHT22;23174;49.462;11.000;2023-08-08T12:00:18;20.60;99.90
37289;DHT22;23174;49.462;11.000;2023-08-08T12:02:19;20.60;99.90
37289;DHT22;23174;49.462;11.000;2023-08-08T12:04:20;20.60;99.90
37289;DHT22;23174;49.462;11.000;2023-08-08T12:06:22;20.70;99.90
37289;DHT22;23174;49.462;11.000;2023-08-08T12:08:22;20.70;99.90
37289;DHT22;23174;49.462;11.000;2023-08-08T12:10:25;20.70;99.90
37289;DHT22;23174;49.462;11.000;2023-08-08T12:12:28;20.60;99.90
37289;DHT22;23174;49.462;11.000;2023-08-08T12:14:28;20.60;99.90
37289;DHT22;23174;49.462;11.000;2023-08-08T12:16:29;20.60;99.90
37289;DHT22;23174;49.462;11.000;2023-08-08T12:18:31;20.70;99.90
37289;DHT22;23174;49.462;11.000;2023-08-08T12:20:32;20.70;99.90
37289;DHT22;23174;49.462;11.000;2023-08-08T12:22:33;20.70;99.90
37289;DHT22;23174;49.462;11.000;2023-08-08T12:24:34;20.70;99.90
37289;DHT22;23174;49.462;11.000;2023-08-08T12:26:34;20.70;99.50
37289;DHT22;23174;49.462;11.000;2023-08-08T12:28:35;20.70;99.90
37289;DHT22;23174;49.462;11.000;2023-08-08T12:30:35;20.70;99.80
37289;DHT22;23174;49.462;11.000;2023-08-08T12:32:36;20.70;99.90